Terminal Aerodrome Forecast
Issued by NWS

Home | Current Version | Previous Version | Text Only | Print | Product List | Glossary On
Versions: 1 2 3 4 5 6 7 8 9 10 11 12 13 14
403
FTUS44 KTSA 201926 AAA
TAFFYV
TAF AMD
KFYV 201926Z 2019/2118 18019G27KT P6SM SCT025
     FM202100 18015G23KT P6SM SCT035
     FM210200 18015KT P6SM BKN025
     FM210500 19015G23KT P6SM OVC015=

USA.gov is the U.S. government's official web portal to all federal, state and local government web resources and services.